sensor_id;sensor_type;location;lat;lon;timestamp;temperature;humidity
20839;DHT22;10580;51.092;6.828;2023-04-05T00:00:25;2.00;99.90
20839;DHT22;10580;51.092;6.828;2023-04-05T00:02:50;2.00;1.00
20839;DHT22;10580;51.092;6.828;2023-04-05T00:05:17;2.00;1.00
20839;DHT22;10580;51.092;6.828;2023-04-05T00:07:57;2.00;1.00
20839;DHT22;10580;51.092;6.828;2023-04-05T00:10:27;2.00;1.00
20839;DHT22;10580;51.092;6.828;2023-04-05T00:12:52;2.00;1.00
20839;DHT22;10580;51.092;6.828;2023-04-05T00:15:18;2.00;1.00
20839;DHT22;10580;51.092;6.828;2023-04-05T00:17:44;2.00;99.90
20839;DHT22;10580;51.092;6.828;2023-04-05T00:20:10;2.00;1.00
20839;DHT22;10580;51.092;6.828;2023-04-05T00:22:37;1.90;1.00
20839;DHT22;10580;51.092;6.828;2023-04-05T00:25:03;1.90;1.00
20839;DHT22;10580;51.092;6.828;2023-04-05T00:27:29;1.90;30.40
20839;DHT22;10580;51.092;6.828;2023-04-05T00:29:55;1.90;1.00
20839;DHT22;10580;51.092;6.828;2023-04-05T00:32:21;1.90;1.00
20839;DHT22;10580;51.092;6.828;2023-04-05T00:34:47;1.90;1.00
20839;DHT22;10580;51.092;6.828;2023-04-05T00:37:12;1.90;1.00
20839;DHT22;10580;51.092;6.828;2023-04-05T00:39:38;2.00;99.90
20839;DHT22;10580;51.092;6.828;2023-04-05T00:42:04;1.90;1.00
20839;DHT22;10580;51.092;6.828;2023-04-05T00:44:31;1.90;99.90
20839;DHT22;10580;51.092;6.828;2023-04-05T00:47:04;1.90;1.00
20839;DHT22;10580;51.092;6.828;2023-04-05T00:49:32;2.00;1.00
20839;DHT22;10580;51.092;6.828;2023-04-05T00:51:58;2.00;99.90
20839;DHT22;10580;51.092;6.828;2023-04-05T00:54:24;2.00;1.00
20839;DHT22;10580;51.092;6.828;2023-04-05T00:56:51;2.10;1.00
20839;DHT22;10580;51.092;6.828;2023-04-05T00:59:18;2.10;1.00
20839;DHT22;10580;51.092;6.828;2023-04-05T01:01:44;2.20;1.00
20839;DHT22;10580;51.092;6.828;2023-04-05T01:04:24;2.20;1.00
20839;DHT22;10580;51.092;6.828;2023-04-05T01:07:22;2.20;21.90
20839;DHT22;10580;51.092;6.828;2023-04-05T01:09:57;2.30;99.90
20839;DHT22;10580;51.092;6.828;2023-04-05T01:12:26;2.30;1.00
20839;DHT22;10580;51.092;6.828;2023-04-05T01:14:53;2.40;1.00
20839;DHT22;10580;51.092;6.828;2023-04-05T01:17:22;2.40;1.00
20839;DHT22;10580;51.092;6.828;2023-04-05T01:19:50;2.40;99.90
20839;DHT22;10580;51.092;6.828;2023-04-05T01:28:00;2.40;99.90
20839;DHT22;10580;51.092;6.828;2023-04-05T01:30:33;2.40;1.00
20839;DHT22;10580;51.092;6.828;2023-04-05T01:35:55;2.40;1.00
20839;DHT22;10580;51.092;6.828;2023-04-05T01:38:24;2.50;1.00
20839;DHT22;10580;51.092;6.828;2023-04-05T01:40:52;2.50;99.90
20839;DHT22;10580;51.092;6.828;2023-04-05T01:43:18;2.50;1.00
20839;DHT22;10580;51.092;6.828;2023-04-05T01:45:45;2.50;99.90
20839;DHT22;10580;51.092;6.828;2023-04-05T01:48:12;2.50;22.90
20839;DHT22;10580;51.092;6.828;2023-04-05T01:50:38;2.50;99.90
20839;DHT22;10580;51.092;6.828;2023-04-05T01:53:06;2.60;99.90
20839;DHT22;10580;51.092;6.828;2023-04-05T01:55:32;2.60;1.00
20839;DHT22;10580;51.092;6.828;2023-04-05T01:57:58;2.60;1.00
20839;DHT22;10580;51.092;6.828;2023-04-05T02:00:23;2.60;99.90
20839;DHT22;10580;51.092;6.828;2023-04-05T02:02:49;2.60;1.00
20839;DHT22;10580;51.092;6.828;2023-04-05T02:05:15;2.60;1.00
20839;DHT22;10580;51.092;6.828;2023-04-05T02:07:40;2.60;1.00
20839;DHT22;10580;51.092;6.828;2023-04-05T02:10:06;2.70;99.90
20839;DHT22;10580;51.092;6.828;2023-04-05T02:12:32;2.70;99.90
20839;DHT22;10580;51.092;6.828;2023-04-05T02:14:58;2.70;1.00
20839;DHT22;10580;51.092;6.828;2023-04-05T02:17:24;2.70;1.00
20839;DHT22;10580;51.092;6.828;2023-04-05T02:19:49;2.70;1.00
20839;DHT22;10580;51.092;6.828;2023-04-05T02:22:18;2.70;99.90
20839;DHT22;10580;51.092;6.828;2023-04-05T02:24:43;2.80;99.90
20839;DHT22;10580;51.092;6.828;2023-04-05T02:27:09;2.80;99.90
20839;DHT22;10580;51.092;6.828;2023-04-05T02:29:35;2.70;99.90
20839;DHT22;10580;51.092;6.828;2023-04-05T02:32:01;2.70;94.40
20839;DHT22;10580;51.092;6.828;2023-04-05T02:34:27;2.70;1.00
20839;DHT22;10580;51.092;6.828;2023-04-05T02:36:53;2.70;1.00
20839;DHT22;10580;51.092;6.828;2023-04-05T02:39:18;2.70;1.00
20839;DHT22;10580;51.092;6.828;2023-04-05T02:41:45;2.70;1.00
20839;DHT22;10580;51.092;6.828;2023-04-05T02:44:12;2.70;1.00
20839;DHT22;10580;51.092;6.828;2023-04-05T02:46:38;2.60;1.00
20839;DHT22;10580;51.092;6.828;2023-04-05T02:49:03;2.60;1.00
20839;DHT22;10580;51.092;6.828;2023-04-05T02:51:29;2.50;1.00
20839;DHT22;10580;51.092;6.828;2023-04-05T02:53:54;2.50;1.00
20839;DHT22;10580;51.092;6.828;2023-04-05T02:56:20;2.40;1.00
20839;DHT22;10580;51.092;6.828;2023-04-05T02:58:46;2.30;1.00
20839;DHT22;10580;51.092;6.828;2023-04-05T03:01:14;2.30;1.00
20839;DHT22;10580;51.092;6.828;2023-04-05T03:03:42;2.20;65.30
20839;DHT22;10580;51.092;6.828;2023-04-05T03:06:07;2.20;99.90
20839;DHT22;10580;51.092;6.828;2023-04-05T03:08:37;2.20;99.90
20839;DHT22;10580;51.092;6.828;2023-04-05T03:11:04;2.10;99.90
20839;DHT22;10580;51.092;6.828;2023-04-05T03:13:31;2.10;99.90
20839;DHT22;10580;51.092;6.828;2023-04-05T03:15:56;2.20;1.00
20839;DHT22;10580;51.092;6.828;2023-04-05T03:18:22;2.20;1.00
20839;DHT22;10580;51.092;6.828;2023-04-05T03:20:50;2.20;34.40
20839;DHT22;10580;51.092;6.828;2023-04-05T03:23:22;2.20;99.90
20839;DHT22;10580;51.092;6.828;2023-04-05T03:25:53;2.10;99.90
20839;DHT22;10580;51.092;6.828;2023-04-05T03:28:20;2.00;99.90
20839;DHT22;10580;51.092;6.828;2023-04-05T03:30:47;2.00;1.00
20839;DHT22;10580;51.092;6.828;2023-04-05T03:33:13;2.00;99.90
20839;DHT22;10580;51.092;6.828;2023-04-05T03:35:39;1.90;99.90
20839;DHT22;10580;51.092;6.828;2023-04-05T03:38:05;1.90;1.00
20839;DHT22;10580;51.092;6.828;2023-04-05T03:40:31;1.80;1.00
20839;DHT22;10580;51.092;6.828;2023-04-05T03:42:57;1.80;99.90
20839;DHT22;10580;51.092;6.828;2023-04-05T03:45:23;1.70;99.90
20839;DHT22;10580;51.092;6.828;2023-04-05T03:47:48;1.60;1.00
20839;DHT22;10580;51.092;6.828;2023-04-05T03:50:14;1.60;99.90
20839;DHT22;10580;51.092;6.828;2023-04-05T03:52:40;1.50;1.00
20839;DHT22;10580;51.092;6.828;2023-04-05T03:55:06;1.50;1.00
20839;DHT22;10580;51.092;6.828;2023-04-05T03:57:32;1.40;1.00
20839;DHT22;10580;51.092;6.828;2023-04-05T03:59:58;1.30;99.90
20839;DHT22;10580;51.092;6.828;2023-04-05T04:02:24;1.30;63.50
20839;DHT22;10580;51.092;6.828;2023-04-05T04:04:50;1.30;99.90
20839;DHT22;10580;51.092;6.828;2023-04-05T04:07:15;1.20;1.00
20839;DHT22;10580;51.092;6.828;2023-04-05T04:09:41;1.20;1.00
20839;DHT22;10580;51.092;6.828;2023-04-05T04:12:07;1.10;1.00
20839;DHT22;10580;51.092;6.828;2023-04-05T04:14:34;1.10;1.00
20839;DHT22;10580;51.092;6.828;2023-04-05T04:16:59;1.00;1.00
20839;DHT22;10580;51.092;6.828;2023-04-05T04:19:25;1.00;5.20
20839;DHT22;10580;51.092;6.828;2023-04-05T04:21:50;1.00;99.90
20839;DHT22;10580;51.092;6.828;2023-04-05T04:24:17;0.90;99.90
20839;DHT22;10580;51.092;6.828;2023-04-05T04:26:45;0.90;99.90
20839;DHT22;10580;51.092;6.828;2023-04-05T04:29:11;0.90;99.90
20839;DHT22;10580;51.092;6.828;2023-04-05T04:31:41;0.90;1.00
20839;DHT22;10580;51.092;6.828;2023-04-05T04:34:13;0.80;1.00
20839;DHT22;10580;51.092;6.828;2023-04-05T04:36:39;0.80;1.00
20839;DHT22;10580;51.092;6.828;2023-04-05T04:39:07;0.70;1.00
20839;DHT22;10580;51.092;6.828;2023-04-05T04:41:35;0.70;1.00
20839;DHT22;10580;51.092;6.828;2023-04-05T04:44:02;0.70;1.00
20839;DHT22;10580;51.092;6.828;2023-04-05T04:46:32;0.70;1.00
20839;DHT22;10580;51.092;6.828;2023-04-05T04:48:59;0.70;1.00
20839;DHT22;10580;51.092;6.828;2023-04-05T04:51:25;0.60;1.00
20839;DHT22;10580;51.092;6.828;2023-04-05T04:53:51;0.60;1.00
20839;DHT22;10580;51.092;6.828;2023-04-05T04:56:17;0.60;1.00
20839;DHT22;10580;51.092;6.828;2023-04-05T04:58:42;0.60;1.00
20839;DHT22;10580;51.092;6.828;2023-04-05T05:01:08;0.60;1.00
20839;DHT22;10580;51.092;6.828;2023-04-05T05:03:34;0.60;1.00
20839;DHT22;10580;51.092;6.828;2023-04-05T05:06:01;0.60;1.00
20839;DHT22;10580;51.092;6.828;2023-04-05T05:08:27;0.70;1.00
20839;DHT22;10580;51.092;6.828;2023-04-05T05:10:53;0.70;1.00
20839;DHT22;10580;51.092;6.828;2023-04-05T05:13:18;0.70;1.00
20839;DHT22;10580;51.092;6.828;2023-04-05T05:15:44;0.70;1.00
20839;DHT22;10580;51.092;6.828;2023-04-05T05:18:09;0.70;1.00
20839;DHT22;10580;51.092;6.828;2023-04-05T05:20:36;0.70;1.00
20839;DHT22;10580;51.092;6.828;2023-04-05T05:23:02;0.70;1.00
20839;DHT22;10580;51.092;6.828;2023-04-05T05:25:29;0.70;1.00
20839;DHT22;10580;51.092;6.828;2023-04-05T05:27:55;0.80;1.00
20839;DHT22;10580;51.092;6.828;2023-04-05T05:30:21;0.90;1.00
20839;DHT22;10580;51.092;6.828;2023-04-05T05:32:47;0.90;1.00
20839;DHT22;10580;51.092;6.828;2023-04-05T05:35:13;1.00;1.00
20839;DHT22;10580;51.092;6.828;2023-04-05T05:37:38;1.10;1.00
20839;DHT22;10580;51.092;6.828;2023-04-05T05:40:05;1.20;1.00
20839;DHT22;10580;51.092;6.828;2023-04-05T05:42:30;1.50;1.00
20839;DHT22;10580;51.092;6.828;2023-04-05T05:45:04;3.00;1.00
20839;DHT22;10580;51.092;6.828;2023-04-05T05:47:30;5.20;1.00
20839;DHT22;10580;51.092;6.828;2023-04-05T05:49:55;7.00;99.90
20839;DHT22;10580;51.092;6.828;2023-04-05T05:52:22;8.50;41.00
20839;DHT22;10580;51.092;6.828;2023-04-05T05:54:47;9.60;1.00
20839;DHT22;10580;51.092;6.828;2023-04-05T05:57:13;10.40;99.90
20839;DHT22;10580;51.092;6.828;2023-04-05T05:59:39;11.10;99.90
20839;DHT22;10580;51.092;6.828;2023-04-05T06:02:06;11.80;99.90
20839;DHT22;10580;51.092;6.828;2023-04-05T06:04:32;12.40;99.90
20839;DHT22;10580;51.092;6.828;2023-04-05T06:06:59;12.90;99.90
20839;DHT22;10580;51.092;6.828;2023-04-05T06:09:25;13.50;99.90
20839;DHT22;10580;51.092;6.828;2023-04-05T06:11:52;13.70;99.90
20839;DHT22;10580;51.092;6.828;2023-04-05T06:14:17;14.00;63.40
20839;DHT22;10580;51.092;6.828;2023-04-05T06:16:43;14.40;46.90
20839;DHT22;10580;51.092;6.828;2023-04-05T06:19:09;15.00;19.90
20839;DHT22;10580;51.092;6.828;2023-04-05T06:21:34;15.30;5.60
20839;DHT22;10580;51.092;6.828;2023-04-05T06:24:00;14.60;1.00
20839;DHT22;10580;51.092;6.828;2023-04-05T06:26:26;13.90;1.00
20839;DHT22;10580;51.092;6.828;2023-04-05T06:32:43;13.10;1.00
20839;DHT22;10580;51.092;6.828;2023-04-05T06:35:09;13.50;1.00
20839;DHT22;10580;51.092;6.828;2023-04-05T06:37:34;11.60;1.00
20839;DHT22;10580;51.092;6.828;2023-04-05T06:40:00;10.90;1.00
20839;DHT22;10580;51.092;6.828;2023-04-05T06:42:25;12.00;1.00
20839;DHT22;10580;51.092;6.828;2023-04-05T06:44:51;12.40;1.00
20839;DHT22;10580;51.092;6.828;2023-04-05T06:47:17;13.40;1.00
20839;DHT22;10580;51.092;6.828;2023-04-05T06:49:42;13.30;1.00
20839;DHT22;10580;51.092;6.828;2023-04-05T06:52:08;11.60;1.00
20839;DHT22;10580;51.092;6.828;2023-04-05T06:54:36;10.20;1.00
20839;DHT22;10580;51.092;6.828;2023-04-05T06:57:02;9.00;1.00
20839;DHT22;10580;51.092;6.828;2023-04-05T06:59:28;7.90;1.00
20839;DHT22;10580;51.092;6.828;2023-04-05T07:01:54;7.50;1.00
20839;DHT22;10580;51.092;6.828;2023-04-05T07:04:21;7.20;1.00
20839;DHT22;10580;51.092;6.828;2023-04-05T07:06:46;6.90;1.00
20839;DHT22;10580;51.092;6.828;2023-04-05T07:09:12;8.30;1.00
20839;DHT22;10580;51.092;6.828;2023-04-05T07:11:37;10.30;2.10
20839;DHT22;10580;51.092;6.828;2023-04-05T07:14:04;12.70;1.00
20839;DHT22;10580;51.092;6.828;2023-04-05T07:16:30;14.50;1.00
20839;DHT22;10580;51.092;6.828;2023-04-05T07:18:56;15.40;1.00
20839;DHT22;10580;51.092;6.828;2023-04-05T07:21:22;16.10;1.00
20839;DHT22;10580;51.092;6.828;2023-04-05T07:23:48;16.60;1.00
20839;DHT22;10580;51.092;6.828;2023-04-05T07:26:13;15.80;1.00
20839;DHT22;10580;51.092;6.828;2023-04-05T07:28:39;16.70;1.00
20839;DHT22;10580;51.092;6.828;2023-04-05T07:31:05;17.30;1.00
20839;DHT22;10580;51.092;6.828;2023-04-05T07:33:31;17.50;1.00
20839;DHT22;10580;51.092;6.828;2023-04-05T07:35:57;18.10;1.00
20839;DHT22;10580;51.092;6.828;2023-04-05T07:38:23;18.60;1.00
20839;DHT22;10580;51.092;6.828;2023-04-05T07:40:49;18.90;1.00
20839;DHT22;10580;51.092;6.828;2023-04-05T07:43:16;18.80;1.00
20839;DHT22;10580;51.092;6.828;2023-04-05T07:45:41;18.90;1.00
20839;DHT22;10580;51.092;6.828;2023-04-05T07:48:07;18.70;1.00
20839;DHT22;10580;51.092;6.828;2023-04-05T07:50:33;19.00;1.00
20839;DHT22;10580;51.092;6.828;2023-04-05T07:52:59;19.10;1.00
20839;DHT22;10580;51.092;6.828;2023-04-05T07:55:25;19.20;1.00
20839;DHT22;10580;51.092;6.828;2023-04-05T07:57:52;19.40;27.00
20839;DHT22;10580;51.092;6.828;2023-04-05T08:00:18;19.80;99.90
20839;DHT22;10580;51.092;6.828;2023-04-05T08:02:44;19.80;1.00
20839;DHT22;10580;51.092;6.828;2023-04-05T08:05:10;19.20;1.00
20839;DHT22;10580;51.092;6.828;2023-04-05T08:07:36;19.20;1.00
20839;DHT22;10580;51.092;6.828;2023-04-05T08:10:02;19.70;1.00
20839;DHT22;10580;51.092;6.828;2023-04-05T08:12:30;19.60;1.00
20839;DHT22;10580;51.092;6.828;2023-04-05T08:14:56;19.70;1.00
20839;DHT22;10580;51.092;6.828;2023-04-05T08:17:22;20.00;1.00
20839;DHT22;10580;51.092;6.828;2023-04-05T08:19:51;20.30;1.00
20839;DHT22;10580;51.092;6.828;2023-04-05T08:22:17;20.80;1.00
20839;DHT22;10580;51.092;6.828;2023-04-05T08:24:43;21.10;1.00
20839;DHT22;10580;51.092;6.828;2023-04-05T08:27:10;21.20;1.00
20839;DHT22;10580;51.092;6.828;2023-04-05T08:29:35;21.00;1.00
20839;DHT22;10580;51.092;6.828;2023-04-05T08:32:01;20.80;1.00
20839;DHT22;10580;51.092;6.828;2023-04-05T08:34:27;20.20;1.00
20839;DHT22;10580;51.092;6.828;2023-04-05T08:36:57;20.10;1.00
20839;DHT22;10580;51.092;6.828;2023-04-05T08:39:23;20.40;1.00
20839;DHT22;10580;51.092;6.828;2023-04-05T08:42:03;20.30;1.00
20839;DHT22;10580;51.092;6.828;2023-04-05T08:44:30;20.90;1.00
20839;DHT22;10580;51.092;6.828;2023-04-05T08:46:58;20.80;1.00
20839;DHT22;10580;51.092;6.828;2023-04-05T08:49:26;21.00;1.00
20839;DHT22;10580;51.092;6.828;2023-04-05T08:51:53;20.90;1.00
20839;DHT22;10580;51.092;6.828;2023-04-05T08:54:19;21.40;1.00
20839;DHT22;10580;51.092;6.828;2023-04-05T08:56:46;21.40;1.00
20839;DHT22;10580;51.092;6.828;2023-04-05T08:59:15;21.50;1.00
20839;DHT22;10580;51.092;6.828;2023-04-05T09:01:43;20.90;1.00
20839;DHT22;10580;51.092;6.828;2023-04-05T09:04:20;21.00;1.00
20839;DHT22;10580;51.092;6.828;2023-04-05T09:06:49;21.20;1.00
20839;DHT22;10580;51.092;6.828;2023-04-05T09:09:15;21.20;1.00
20839;DHT22;10580;51.092;6.828;2023-04-05T09:11:42;21.20;1.00
20839;DHT22;10580;51.092;6.828;2023-04-05T09:14:08;21.30;1.00
20839;DHT22;10580;51.092;6.828;2023-04-05T09:16:40;21.20;1.00
20839;DHT22;10580;51.092;6.828;2023-04-05T09:19:06;21.00;1.00
20839;DHT22;10580;51.092;6.828;2023-04-05T09:22:01;21.20;1.00
20839;DHT22;10580;51.092;6.828;2023-04-05T09:27:10;21.40;1.00
20839;DHT22;10580;51.092;6.828;2023-04-05T09:29:36;20.80;1.00
20839;DHT22;10580;51.092;6.828;2023-04-05T09:32:04;20.70;1.00
20839;DHT22;10580;51.092;6.828;2023-04-05T09:34:34;20.60;1.00
20839;DHT22;10580;51.092;6.828;2023-04-05T09:37:02;20.30;1.00
20839;DHT22;10580;51.092;6.828;2023-04-05T09:39:32;20.20;1.00
20839;DHT22;10580;51.092;6.828;2023-04-05T09:42:05;20.20;1.00
20839;DHT22;10580;51.092;6.828;2023-04-05T09:45:10;20.40;1.00
20839;DHT22;10580;51.092;6.828;2023-04-05T09:47:35;20.50;1.00
20839;DHT22;10580;51.092;6.828;2023-04-05T09:50:02;20.00;1.00
20839;DHT22;10580;51.092;6.828;2023-04-05T10:02:38;15.60;1.00
20839;DHT22;10580;51.092;6.828;2023-04-05T10:22:14;12.30;1.00
20839;DHT22;10580;51.092;6.828;2023-04-05T10:24:59;12.20;1.00
20839;DHT22;10580;51.092;6.828;2023-04-05T10:27:40;12.50;1.00
20839;DHT22;10580;51.092;6.828;2023-04-05T10:30:08;12.30;1.00
20839;DHT22;10580;51.092;6.828;2023-04-05T10:40:46;11.10;1.00
20839;DHT22;10580;51.092;6.828;2023-04-05T10:43:20;10.80;1.00
20839;DHT22;10580;51.092;6.828;2023-04-05T10:45:48;11.00;1.00
20839;DHT22;10580;51.092;6.828;2023-04-05T10:48:46;11.70;1.00
20839;DHT22;10580;51.092;6.828;2023-04-05T10:51:14;12.60;1.00
20839;DHT22;10580;51.092;6.828;2023-04-05T10:53:40;12.60;1.00
20839;DHT22;10580;51.092;6.828;2023-04-05T10:56:07;12.50;1.00
20839;DHT22;10580;51.092;6.828;2023-04-05T10:58:34;11.90;1.00
20839;DHT22;10580;51.092;6.828;2023-04-05T11:01:00;11.70;1.00
20839;DHT22;10580;51.092;6.828;2023-04-05T11:03:48;11.60;1.00
20839;DHT22;10580;51.092;6.828;2023-04-05T11:06:30;11.60;1.00
20839;DHT22;10580;51.092;6.828;2023-04-05T11:09:11;11.60;1.00
20839;DHT22;10580;51.092;6.828;2023-04-05T11:11:43;11.50;1.00
20839;DHT22;10580;51.092;6.828;2023-04-05T11:14:25;11.10;1.00
20839;DHT22;10580;51.092;6.828;2023-04-05T11:16:55;11.10;1.00
20839;DHT22;10580;51.092;6.828;2023-04-05T11:22:09;11.20;1.00
20839;DHT22;10580;51.092;6.828;2023-04-05T11:24:54;11.40;1.00
20839;DHT22;10580;51.092;6.828;2023-04-05T11:27:32;11.70;1.00
20839;DHT22;10580;51.092;6.828;2023-04-05T11:30:05;11.90;1.00
20839;DHT22;10580;51.092;6.828;2023-04-05T11:32:39;12.10;1.00
20839;DHT22;10580;51.092;6.828;2023-04-05T11:35:11;12.40;1.00
20839;DHT22;10580;51.092;6.828;2023-04-05T11:40:28;13.10;1.00
20839;DHT22;10580;51.092;6.828;2023-04-05T11:42:58;13.30;1.00
20839;DHT22;10580;51.092;6.828;2023-04-05T11:45:25;13.40;1.00
20839;DHT22;10580;51.092;6.828;2023-04-05T11:47:51;13.30;1.00
20839;DHT22;10580;51.092;6.828;2023-04-05T11:50:17;13.30;1.00
20839;DHT22;10580;51.092;6.828;2023-04-05T11:52:43;13.50;1.00
20839;DHT22;10580;51.092;6.828;2023-04-05T11:55:11;13.50;1.00
20839;DHT22;10580;51.092;6.828;2023-04-05T11:57:36;13.60;1.00
20839;DHT22;10580;51.092;6.828;2023-04-05T12:00:03;13.20;1.00
20839;DHT22;10580;51.092;6.828;2023-04-05T12:02:33;12.90;1.00
20839;DHT22;10580;51.092;6.828;2023-04-05T12:05:01;12.70;1.00
20839;DHT22;10580;51.092;6.828;2023-04-05T12:07:28;12.90;1.00
20839;DHT22;10580;51.092;6.828;2023-04-05T12:16:34;13.90;1.00
20839;DHT22;10580;51.092;6.828;2023-04-05T12:19:00;14.40;1.00
20839;DHT22;10580;51.092;6.828;2023-04-05T12:22:05;14.80;99.90
20839;DHT22;10580;51.092;6.828;2023-04-05T12:25:09;15.00;99.90
20839;DHT22;10580;51.092;6.828;2023-04-05T12:27:35;15.30;84.80
20839;DHT22;10580;51.092;6.828;2023-04-05T12:30:19;15.20;99.90
20839;DHT22;10580;51.092;6.828;2023-04-05T12:32:49;15.20;1.00
20839;DHT22;10580;51.092;6.828;2023-04-05T12:37:45;14.90;1.00
20839;DHT22;10580;51.092;6.828;2023-04-05T12:40:11;14.80;1.00
20839;DHT22;10580;51.092;6.828;2023-04-05T12:42:39;15.00;1.00
20839;DHT22;10580;51.092;6.828;2023-04-05T12:45:12;15.10;1.00
20839;DHT22;10580;51.092;6.828;2023-04-05T12:48:13;15.40;1.00
20839;DHT22;10580;51.092;6.828;2023-04-05T12:50:51;15.70;1.00
20839;DHT22;10580;51.092;6.828;2023-04-05T12:53:23;15.70;1.00
20839;DHT22;10580;51.092;6.828;2023-04-05T12:55:53;15.30;1.00
20839;DHT22;10580;51.092;6.828;2023-04-05T12:58:21;15.50;1.00
20839;DHT22;10580;51.092;6.828;2023-04-05T13:00:50;15.70;1.00
20839;DHT22;10580;51.092;6.828;2023-04-05T13:03:18;15.80;1.00
20839;DHT22;10580;51.092;6.828;2023-04-05T13:05:50;15.90;1.00
20839;DHT22;10580;51.092;6.828;2023-04-05T13:08:25;15.70;1.00
20839;DHT22;10580;51.092;6.828;2023-04-05T13:10:53;15.50;1.00
20839;DHT22;10580;51.092;6.828;2023-04-05T13:13:19;15.40;1.00
20839;DHT22;10580;51.092;6.828;2023-04-05T13:15:45;15.30;1.00
20839;DHT22;10580;51.092;6.828;2023-04-05T13:18:11;15.30;1.00
20839;DHT22;10580;51.092;6.828;2023-04-05T13:20:44;15.40;1.00
20839;DHT22;10580;51.092;6.828;2023-04-05T13:23:10;15.50;1.00
20839;DHT22;10580;51.092;6.828;2023-04-05T13:25:41;15.60;1.00
20839;DHT22;10580;51.092;6.828;2023-04-05T13:28:10;15.60;1.00
20839;DHT22;10580;51.092;6.828;2023-04-05T13:30:36;15.40;1.00
20839;DHT22;10580;51.092;6.828;2023-04-05T13:33:02;15.20;1.00
20839;DHT22;10580;51.092;6.828;2023-04-05T13:35:30;15.40;1.00
20839;DHT22;10580;51.092;6.828;2023-04-05T13:37:56;15.60;1.00
20839;DHT22;10580;51.092;6.828;2023-04-05T13:40:22;15.60;1.00
20839;DHT22;10580;51.092;6.828;2023-04-05T13:42:47;15.40;1.00
20839;DHT22;10580;51.092;6.828;2023-04-05T13:45:16;15.50;1.00
20839;DHT22;10580;51.092;6.828;2023-04-05T13:47:50;15.50;1.00
20839;DHT22;10580;51.092;6.828;2023-04-05T13:50:16;15.50;1.00
20839;DHT22;10580;51.092;6.828;2023-04-05T13:52:42;15.80;1.00
20839;DHT22;10580;51.092;6.828;2023-04-05T13:55:07;15.80;1.00
20839;DHT22;10580;51.092;6.828;2023-04-05T13:57:33;15.80;1.00
20839;DHT22;10580;51.092;6.828;2023-04-05T13:59:58;15.60;1.00
20839;DHT22;10580;51.092;6.828;2023-04-05T14:02:24;15.50;1.00
20839;DHT22;10580;51.092;6.828;2023-04-05T14:04:52;15.40;1.00
20839;DHT22;10580;51.092;6.828;2023-04-05T14:07:31;15.50;1.00
20839;DHT22;10580;51.092;6.828;2023-04-05T14:10:00;15.50;1.00
20839;DHT22;10580;51.092;6.828;2023-04-05T14:12:32;15.60;1.00
20839;DHT22;10580;51.092;6.828;2023-04-05T14:14:57;15.50;1.00
20839;DHT22;10580;51.092;6.828;2023-04-05T14:17:26;15.40;1.00
20839;DHT22;10580;51.092;6.828;2023-04-05T14:19:55;15.50;1.00
20839;DHT22;10580;51.092;6.828;2023-04-05T14:22:21;15.30;1.00
20839;DHT22;10580;51.092;6.828;2023-04-05T14:24:46;15.20;1.00
20839;DHT22;10580;51.092;6.828;2023-04-05T14:27:15;15.10;1.00
20839;DHT22;10580;51.092;6.828;2023-04-05T14:29:40;14.90;1.00
20839;DHT22;10580;51.092;6.828;2023-04-05T14:32:06;14.70;1.00
20839;DHT22;10580;51.092;6.828;2023-04-05T14:34:34;14.60;1.00
20839;DHT22;10580;51.092;6.828;2023-04-05T14:37:03;14.60;1.00
20839;DHT22;10580;51.092;6.828;2023-04-05T14:39:30;14.70;1.00
20839;DHT22;10580;51.092;6.828;2023-04-05T14:41:56;14.70;1.00
20839;DHT22;10580;51.092;6.828;2023-04-05T14:44:34;14.60;1.00
20839;DHT22;10580;51.092;6.828;2023-04-05T14:47:00;14.50;1.00
20839;DHT22;10580;51.092;6.828;2023-04-05T14:49:29;14.50;1.00
20839;DHT22;10580;51.092;6.828;2023-04-05T14:51:58;14.70;1.00
20839;DHT22;10580;51.092;6.828;2023-04-05T14:54:23;14.50;1.00
20839;DHT22;10580;51.092;6.828;2023-04-05T14:56:49;14.50;1.00
20839;DHT22;10580;51.092;6.828;2023-04-05T14:59:15;14.40;1.00
20839;DHT22;10580;51.092;6.828;2023-04-05T15:01:46;14.40;1.00
20839;DHT22;10580;51.092;6.828;2023-04-05T15:04:12;14.40;1.00
20839;DHT22;10580;51.092;6.828;2023-04-05T15:07:04;14.30;1.00
20839;DHT22;10580;51.092;6.828;2023-04-05T15:09:32;14.20;1.00
20839;DHT22;10580;51.092;6.828;2023-04-05T15:11:58;14.20;1.00
20839;DHT22;10580;51.092;6.828;2023-04-05T15:14:23;14.20;1.00
20839;DHT22;10580;51.092;6.828;2023-04-05T15:16:49;14.10;1.00
20839;DHT22;10580;51.092;6.828;2023-04-05T15:19:15;14.00;1.00
20839;DHT22;10580;51.092;6.828;2023-04-05T15:21:41;14.00;1.00
20839;DHT22;10580;51.092;6.828;2023-04-05T15:24:08;13.90;1.00
20839;DHT22;10580;51.092;6.828;2023-04-05T15:26:35;13.90;1.00
20839;DHT22;10580;51.092;6.828;2023-04-05T15:29:00;13.90;1.00
20839;DHT22;10580;51.092;6.828;2023-04-05T15:31:26;13.80;1.00
20839;DHT22;10580;51.092;6.828;2023-04-05T15:33:51;14.00;1.00
20839;DHT22;10580;51.092;6.828;2023-04-05T15:36:17;14.10;1.00
20839;DHT22;10580;51.092;6.828;2023-04-05T15:38:43;14.00;1.00
20839;DHT22;10580;51.092;6.828;2023-04-05T15:41:08;13.90;1.00
20839;DHT22;10580;51.092;6.828;2023-04-05T15:43:34;13.80;1.00
20839;DHT22;10580;51.092;6.828;2023-04-05T15:46:01;13.70;1.00
20839;DHT22;10580;51.092;6.828;2023-04-05T15:48:29;13.60;1.00
20839;DHT22;10580;51.092;6.828;2023-04-05T15:50:55;13.40;1.00
20839;DHT22;10580;51.092;6.828;2023-04-05T15:53:20;13.40;1.00
20839;DHT22;10580;51.092;6.828;2023-04-05T15:55:46;13.30;1.00
20839;DHT22;10580;51.092;6.828;2023-04-05T15:58:15;13.30;1.00
20839;DHT22;10580;51.092;6.828;2023-04-05T16:00:41;13.20;1.00
20839;DHT22;10580;51.092;6.828;2023-04-05T16:03:06;13.20;1.00
20839;DHT22;10580;51.092;6.828;2023-04-05T16:05:32;13.10;1.00
20839;DHT22;10580;51.092;6.828;2023-04-05T16:07:57;13.00;1.00
20839;DHT22;10580;51.092;6.828;2023-04-05T16:10:24;12.90;1.00
20839;DHT22;10580;51.092;6.828;2023-04-05T16:12:52;12.90;1.00
20839;DHT22;10580;51.092;6.828;2023-04-05T16:15:18;12.80;1.00
20839;DHT22;10580;51.092;6.828;2023-04-05T16:17:44;12.80;1.00
20839;DHT22;10580;51.092;6.828;2023-04-05T16:20:10;13.00;1.00
20839;DHT22;10580;51.092;6.828;2023-04-05T16:22:36;13.00;1.00
20839;DHT22;10580;51.092;6.828;2023-04-05T16:25:02;13.00;1.00
20839;DHT22;10580;51.092;6.828;2023-04-05T16:27:27;12.90;1.00
20839;DHT22;10580;51.092;6.828;2023-04-05T16:29:53;12.90;1.00
20839;DHT22;10580;51.092;6.828;2023-04-05T16:32:18;12.70;1.00
20839;DHT22;10580;51.092;6.828;2023-04-05T16:34:44;12.50;1.00
20839;DHT22;10580;51.092;6.828;2023-04-05T16:37:10;12.30;1.00
20839;DHT22;10580;51.092;6.828;2023-04-05T16:39:35;12.40;1.00
20839;DHT22;10580;51.092;6.828;2023-04-05T16:42:01;12.40;1.00
20839;DHT22;10580;51.092;6.828;2023-04-05T16:44:27;12.30;1.00
20839;DHT22;10580;51.092;6.828;2023-04-05T16:46:52;12.20;1.00
20839;DHT22;10580;51.092;6.828;2023-04-05T16:49:18;12.20;1.00
20839;DHT22;10580;51.092;6.828;2023-04-05T16:51:44;12.10;1.00
20839;DHT22;10580;51.092;6.828;2023-04-05T16:54:10;12.00;1.00
20839;DHT22;10580;51.092;6.828;2023-04-05T16:56:35;11.90;1.00
20839;DHT22;10580;51.092;6.828;2023-04-05T16:59:01;11.90;1.00